Stations météo

réclame
Mon MeteoGroup
Venezia Lido, Italie (16101): Température de l'air & dewpoint: 19.02.2018 06:00:00 - 25.02.2018 06:00:00 (CET)Venezia Lido, Italie (16101): Vitesse du vent: 19.02.2018 06:00:00 - 25.02.2018 06:00:00 (CET)Venezia Lido, Italie (16101): Direction du vent: 19.02.2018 06:00:00 - 25.02.2018 06:00:00 (CET)Venezia Lido, Italie (16101): reduced air pressure: 19.02.2018 06:00:00 - 25.02.2018 06:00:00 (CET)Venezia Lido, Italie (16101): Quantités de précipitations: 19.02.2018 06:00:00 - 25.02.2018 06:00:00 (CET)
Date & Time tt [°C] td [°C] ff [km/h] ff [knt] dd ppp [hPa] rr [mm]
25.02.2018 06:00:00 - - - - - - -
25.02.2018 05:00:00 -2,6 -8,8 34 18 E 1015,3 -
25.02.2018 04:00:00 -2,4 -8,2 41 22 E 1015,2 -
25.02.2018 03:00:00 -2,1 -7,5 39 21 E 1015,2 -
25.02.2018 02:00:00 -1,8 -6,8 44 24 E 1015,1 -
25.02.2018 01:00:00 -1,3 -7,3 42 23 E 1015,1 0,0
25.02.2018 00:00:00 -0,9 -6,5 42 23 E 1014,9 -
24.02.2018 23:00:00 -0,3 -6,8 41 22 E 1014,5 -
24.02.2018 22:00:00 0,5 -6,5 37 20 E 1013,9 -
24.02.2018 21:00:00 1,7 -5,6 37 20 E 1013,4 -
24.02.2018 20:00:00 2,6 -5,6 35 19 E 1012,5 -
24.02.2018 19:00:00 2,9 -4,4 37 20 E 1012,0 0,0
24.02.2018 18:00:00 3,1 -2,3 29 16 E 1011,3 -
24.02.2018 17:00:00 4,1 -2,2 29 16 E 1010,9 -
24.02.2018 16:00:00 5,1 -1,2 35 19 E 1010,6 -
24.02.2018 15:00:00 6,2 -0,9 34 18 E 1010,8 -
24.02.2018 14:00:00 7,3 -0,3 29 16 E 1010,9 -
24.02.2018 13:00:00 7,3 0,0 29 16 E 1011,1 0,0
24.02.2018 12:00:00 5,5 0,0 22 12 E 1011,6 -
24.02.2018 11:00:00 4,5 -0,4 24 13 E 1011,4 -
24.02.2018 10:00:00 4,0 -0,3 21 11 E 1011,4 -
24.02.2018 09:00:00 2,7 -1,3 22 12 E 1010,7 -
24.02.2018 08:00:00 1,4 -1,5 22 12 E 1010,2 -
24.02.2018 07:00:00 1,3 -1,6 21 11 E 1010,0 -
24.02.2018 06:00:00 1,4 -1,5 24 13 E 1009,7 -
24.02.2018 05:00:00 1,9 -1,2 29 16 E 1009,4 -
24.02.2018 04:00:00 2,3 -1,0 31 17 E 1009,6 -
24.02.2018 03:00:00 2,0 -0,6 31 17 E 1009,9 -
24.02.2018 02:00:00 1,9 -0,1 28 15 E 1009,7 -
24.02.2018 01:00:00 1,9 0,1 31 17 E 1009,7 -
24.02.2018 00:00:00 1,8 0,2 35 19 E 1009,5 -
23.02.2018 23:00:00 1,6 0,1 29 16 E 1009,7 -
23.02.2018 22:00:00 1,4 -0,1 34 18 E 1009,8 -
23.02.2018 21:00:00 1,2 -0,3 29 16 E 1009,7 -
23.02.2018 20:00:00 1,2 -0,3 41 22 E 1009,7 -
23.02.2018 19:00:00 1,9 -0,9 31 17 E 1009,7 -
23.02.2018 18:00:00 3,0 -0,7 29 16 E 1008,9 -
23.02.2018 17:00:00 3,6 -1,4 39 21 E 1008,4 -
23.02.2018 16:00:00 3,5 -0,2 26 14 E 1007,8 -
23.02.2018 15:00:00 3,0 0,5 22 12 E 1008,0 -
23.02.2018 14:00:00 2,7 0,1 22 12 E 1008,5 -
23.02.2018 13:00:00 2,2 -0,4 26 14 E 1009,4 -
23.02.2018 12:00:00 1,6 -0,5 24 13 E 1009,7 -
23.02.2018 11:00:00 0,6 -0,9 26 14 ENE 1010,1 -
23.02.2018 10:00:00 -0,2 -1,5 34 18 E 1009,9 -
23.02.2018 09:00:00 -1,0 -2,3 34 18 E 1009,8 -
23.02.2018 08:00:00 -1,5 -2,8 34 18 E 1009,6 -
23.02.2018 07:00:00 -2,0 -3,3 35 19 E 1009,0 -
23.02.2018 06:00:00 -2,1 -3,4 29 16 E 1008,8 -
23.02.2018 05:00:00 -2,3 -3,6 31 17 E 1008,7 -
23.02.2018 04:00:00 -1,7 -3,0 37 20 E 1008,5 -
23.02.2018 03:00:00 -0,6 -2,1 41 22 E 1008,8 -
23.02.2018 02:00:00 -0,1 -2,5 41 22 E 1009,1 -
23.02.2018 01:00:00 0,8 -3,2 34 18 E 1009,1 0,0
23.02.2018 00:00:00 0,7 -3,3 37 20 E 1009,3 -
22.02.2018 23:00:00 1,3 -2,2 37 20 E 1009,9 -
22.02.2018 22:00:00 1,1 -3,1 35 19 E 1010,0 -
22.02.2018 21:00:00 1,0 -3,0 34 18 E 1009,8 -
22.02.2018 20:00:00 0,9 -2,4 31 17 E 1009,6 -
22.02.2018 19:00:00 1,0 -1,9 34 18 E 1009,5 -
22.02.2018 18:00:00 1,2 -0,3 21 11 ENE 1009,1 -
22.02.2018 17:00:00 0,6 -0,9 21 11 ENE 1009,4 -
22.02.2018 16:00:00 0,1 -1,2 24 13 ENE 1009,3 -
22.02.2018 15:00:00 -0,4 -1,7 37 20 E 1009,3 -
22.02.2018 14:00:00 0,0 -1,3 35 19 E 1009,0 -
22.02.2018 13:00:00 -0,3 -1,6 41 22 E 1009,2 -
22.02.2018 12:00:00 -0,4 -1,7 41 22 E 1009,2 -
22.02.2018 11:00:00 -0,1 -1,6 42 23 E 1008,7 -
22.02.2018 10:00:00 0,0 -1,3 44 24 E 1008,1 -
22.02.2018 09:00:00 0,0 -1,3 41 22 E 1007,8 -
22.02.2018 08:00:00 0,2 -1,3 39 21 E 1007,4 -
22.02.2018 07:00:00 0,3 -1,2 35 19 E 1007,2 -
22.02.2018 06:00:00 1,7 -1,3 39 21 E 1006,7 -
22.02.2018 05:00:00 3,2 -3,0 39 21 E 1006,4 -
22.02.2018 04:00:00 3,4 -3,1 42 23 E 1006,3 -
22.02.2018 03:00:00 3,3 -3,6 35 19 E 1006,7 -
22.02.2018 02:00:00 3,5 -3,6 35 19 E 1006,8 -
22.02.2018 01:00:00 3,5 -3,0 34 18 E 1007,2 0,0
22.02.2018 00:00:00 3,5 -2,8 35 19 E 1007,6 -
21.02.2018 23:00:00 3,6 -2,4 35 19 E 1007,7 -
21.02.2018 22:00:00 3,7 -1,9 39 21 E 1008,0 -
21.02.2018 21:00:00 3,6 -1,4 35 19 ESE 1008,2 -
21.02.2018 20:00:00 3,8 -1,4 39 21 ESE 1008,2 -
21.02.2018 19:00:00 3,9 -1,7 42 23 ESE 1008,3 0,0
21.02.2018 18:00:00 4,1 -1,8 42 23 ESE 1008,1 -
21.02.2018 17:00:00 4,6 -2,1 42 23 ESE 1008,1 -
21.02.2018 16:00:00 4,7 -1,8 44 24 E 1008,0 -
21.02.2018 15:00:00 4,5 -1,8 34 18 E 1008,6 -
21.02.2018 14:00:00 4,4 -1,7 18 10 E 1009,1 -
21.02.2018 13:00:00 4,2 -2,7 11 6 ENE 1009,4 0,0
21.02.2018 12:00:00 3,0 -1,2 8 4 ENE 1010,1 -
21.02.2018 11:00:00 1,4 -2,4 4 2 ENE 1010,4 -
21.02.2018 10:00:00 0,8 -2,8 2 1 ENE 1010,3 -
21.02.2018 09:00:00 0,1 -3,2 2 1 NE 1010,0 -
21.02.2018 08:00:00 -0,9 -3,3 5 3 NE 1009,7 -
21.02.2018 07:00:00 -1,0 -3,2 8 4 NNE 1009,3 0,0
21.02.2018 06:00:00 -1,0 -3,2 8 4 NNE 1009,2 -
21.02.2018 05:00:00 -0,1 -3,4 9 5 NE 1009,1 -
21.02.2018 04:00:00 0,4 -3,6 5 3 NE 1009,3 -
21.02.2018 03:00:00 1,0 -2,8 13 7 ENE 1009,4 -
21.02.2018 02:00:00 1,0 -2,5 11 6 ENE 1009,7 -
21.02.2018 01:00:00 0,6 -2,5 15 8 E 1009,7 0,0
21.02.2018 00:00:00 1,4 -2,4 15 8 E 1009,7 -
20.02.2018 23:00:00 1,6 -2,0 22 12 E 1009,7 -
20.02.2018 22:00:00 1,5 -2,1 8 4 ENE 1009,8 -
20.02.2018 21:00:00 1,7 -2,1 8 4 ENE 1009,7 -
20.02.2018 20:00:00 2,2 -2,0 8 4 ENE 1009,7 -
20.02.2018 19:00:00 2,2 -2,0 5 3 ENE 1009,6 0,0
20.02.2018 18:00:00 2,9 -2,3 18 10 E 1009,3 -
20.02.2018 17:00:00 3,2 -2,0 16 9 E 1009,1 -
20.02.2018 16:00:00 3,2 -2,4 24 13 ESE 1008,9 -
20.02.2018 15:00:00 2,9 -1,9 21 11 E 1009,3 -
20.02.2018 14:00:00 2,9 -2,7 22 12 E 1009,6 -
20.02.2018 13:00:00 2,0 -3,2 13 7 E 1010,1 0,0
20.02.2018 12:00:00 1,6 -4,4 5 3 ENE 1010,7 -
20.02.2018 11:00:00 0,7 -4,4 4 2 ENE 1011,0 -
20.02.2018 10:00:00 0,5 -4,2 4 2 NE 1011,0 -
20.02.2018 09:00:00 -0,3 -4,3 4 2 N 1011,2 -
20.02.2018 08:00:00 -0,5 -4,4 5 3 NNE 1011,1 -
20.02.2018 07:00:00 -1,2 -4,6 4 2 NNE 1011,1 0,0
20.02.2018 06:00:00 -1,4 -4,8 4 2 NNE 1011,5 -
20.02.2018 05:00:00 -1,6 -5,2 8 4 NNE 1011,7 -
20.02.2018 04:00:00 -1,4 -5,5 4 2 NE 1012,0 -
20.02.2018 03:00:00 -1,0 -5,8 5 3 NW 1012,7 -
20.02.2018 02:00:00 -0,6 -5,9 5 3 NE 1013,1 -
20.02.2018 01:00:00 -0,3 -5,4 9 5 NE 1013,8 0,0
20.02.2018 00:00:00 -0,2 -4,9 9 5 ENE 1014,3 -
19.02.2018 23:00:00 -0,1 -4,6 11 6 ENE 1014,6 -
19.02.2018 22:00:00 0,2 -4,1 13 7 ENE 1015,1 -
19.02.2018 21:00:00 0,4 -3,9 9 5 ENE 1015,5 -
19.02.2018 20:00:00 0,5 -3,8 11 6 ENE 1015,8 -
19.02.2018 19:00:00 1,0 -3,7 15 8 E 1015,9 0,0
19.02.2018 18:00:00 1,0 -3,7 16 9 E 1016,0 -
19.02.2018 17:00:00 2,3 -3,3 22 12 E 1016,0 -
19.02.2018 16:00:00 3,0 -2,8 22 12 ESE 1016,4 -
19.02.2018 15:00:00 3,6 -3,3 24 13 E 1016,9 -
19.02.2018 14:00:00 3,3 -3,6 28 15 E 1017,5 -
19.02.2018 13:00:00 2,6 -3,6 26 14 E 1018,3 0,0
19.02.2018 12:00:00 2,5 -3,3 28 15 E 1018,8 -
19.02.2018 11:00:00 2,5 -3,3 26 14 E 1019,0 -
19.02.2018 10:00:00 1,9 -2,3 22 12 E 1019,2 -
19.02.2018 09:00:00 1,2 -2,6 22 12 E 1019,5 -
19.02.2018 08:00:00 0,8 -3,2 31 17 E 1019,6 -
19.02.2018 07:00:00 1,1 -3,5 29 16 E 1019,4 0,0
19.02.2018 06:00:00 1,4 -3,7 26 14 E 1019,5 -

tt = Température de l'air
td = dewpoint
ff = Vitesse du vent
dd = Direction du vent
ppp = reduced air pressure
rr = Quantités de précipitations

stations d'obs. à proximité